Accueil
METAR-TAF:

METAR-TAF

Aéroports :

Aéroport de Bristol

Bristol, Angleterre

latitude: 51-23N, longitude: 002-43W, altitude: 189 m

Observation

Le bulletin a été fait il y a 53 minutes, à 18:20 UTC
Vent 10 kt de nord-ouest
Température 14°C
Humidité 72%
Pression 1015 hPa
Visibilité 10 km ou plus
Quelques nuages à une hauteur de 4000 ft

METAR: EGGD 301820Z AUTO 32010KT 9999 FEW040 14/09 Q1015

Heure: 20:13 (19:13 UTC)

Prévision

Le bulletin a été fait il y a 2 heures et 19 minutes, à 16:54 UTC
Prévision valable du 30 à 18 UTC au 31 à 18 UTC
Vent 10 kt de nord/nord-ouest
Visibilité 10 km ou plus
Nuages épars à une hauteur de 4500 ft

TAF: EGGD 301654Z 3018/3118 34010KT 9999 SCT045

Observations et prévisions météorologiques de plus de 4000 aéroports (messages METAR et TAF).

Les stations disponibles sont représentées par des disques jaunes et rouges sur la carte.

Passer la souris dessus pour voir le nom de la station.

Cliquer dessus pour voir les observations et prévisions météorologiques.

Pour changer de carte: cliquez sur les boutons verts avec une croix noire pour zoomer, sur le bouton vert avec un tiret pour effectuer un zoom arrière, ou sur les flèches vertes pour les cartes adjacentes.


METAR-TAF: